M I D A S
Marine Information and Data Acquisition System
Tripno 278 of the Zeeleeuw from 2002-05-17 07:00:00 to 2002-05-17 15:25:00
Back to CruiseResearch ActivitiesStationsMapUnderway DataData graphs

EquipmentUnitsComment
TimeDGPSUTC
LatitudeDGPSDM.mWGS84
LongitudeDGPSDM.mWGS84
HeadingGyrodeg 
SOGDGPSknotsSpeed over ground
COGDGPSdegCourse over ground
DepthEcho soundermeters200 kHz
Missing or incorrect values are displayed as -999
Navigation data collected by the RV Zeeleeuw from 2002-05-17 07:00:00 to 2002-05-17 15:25:00
                                                                                    Next 1000 lines
Time Latitude Longitude Heading SOG COG Depth
2002-05-17 07:00:08 51°13.673 2°55.873 308.5 3.8 306.7 9.7
2002-05-17 07:00:13 51°13.676 2°55.866 308.8 4.1 306.7 9.8
2002-05-17 07:00:18 51°13.68 2°55.857 308.7 4.3 306.4 9.7
2002-05-17 07:00:22 51°13.683 2°55.851 308 4.5 306.1 9.6
2002-05-17 07:00:28 51°13.688 2°55.84 307.2 4.8 305.1 9.6
2002-05-17 07:00:33 51°13.692 2°55.831 306.7 5 304.6 9.2
2002-05-17 07:00:37 51°13.696 2°55.823 306.5 5.1 304.4 9.1
2002-05-17 07:00:43 51°13.701 2°55.811 307.2 5.3 304.7 10.2
2002-05-17 07:00:48 51°13.705 2°55.802 308 5.4 304.8 10.6
2002-05-17 07:00:53 51°13.71 2°55.792 309.5 5.5 305.8 10.5
2002-05-17 07:00:57 51°13.713 2°55.784 310.2 5.6 306.6 10.5
2002-05-17 07:01:03 51°13.719 2°55.771 310.3 5.7 306.9 10.7
2002-05-17 07:01:07 51°13.723 2°55.763 310 5.8 307 10.1
2002-05-17 07:01:13 51°13.729 2°55.751 310.5 5.9 307.6 10.1
2002-05-17 07:01:18 51°13.734 2°55.74 311.7 6 308.1 10.2
2002-05-17 07:01:23 51°13.74 2°55.73 313.7 6 310 9.9
2002-05-17 07:01:28 51°13.746 2°55.721 316.2 6.1 311.7 9.6
2002-05-17 07:01:32 51°13.751 2°55.713 319.5 6.1 315.3 10.1
2002-05-17 07:01:37 51°13.757 2°55.704 322.3 6.1 317.6 9.9
2002-05-17 07:01:43 51°13.765 2°55.694 325.7 6.1 321 10.1
2002-05-17 07:01:48 51°13.772 2°55.686 328.3 6.1 323.4 10.2
2002-05-17 07:01:52 51°13.778 2°55.68 330 6.2 325.8 10.1
2002-05-17 07:01:57 51°13.785 2°55.672 330.8 6.2 326.9 10.4
2002-05-17 07:02:02 51°13.792 2°55.665 331.8 6.2 328.4 10.4
2002-05-17 07:02:08 51°13.801 2°55.657 332.7 6.2 329.8 10.6
2002-05-17 07:02:13 51°13.809 2°55.65 333 5.5 330.6 10.6
2002-05-17 07:02:18 51°13.817 2°55.644 333.3 5.1 331.1 10.6
2002-05-17 07:02:22 51°13.823 2°55.638 333.8 5.9 331.7 10.4
2002-05-17 07:02:28 51°13.832 2°55.631 334.5 6.3 332.3 10.5
2002-05-17 07:02:33 51°13.84 2°55.624 334.8 6.4 332.7 10.3
2002-05-17 07:02:38 51°13.848 2°55.617 334.5 6.4 332.7 10
2002-05-17 07:02:42 51°13.854 2°55.612 334.2 6.4 332.5 9.9
2002-05-17 07:02:47 51°13.862 2°55.605 334 6.3 332.1 10.1
2002-05-17 07:02:53 51°13.871 2°55.598 334.3 6.4 332.1 10
2002-05-17 07:02:57 51°13.877 2°55.592 334.7 6.4 332.1 10
2002-05-17 07:03:03 51°13.887 2°55.584 335.3 6.4 332.2 9.9
2002-05-17 07:03:08 51°13.895 2°55.578 335.8 6.4 332.7 9.8
2002-05-17 07:03:13 51°13.903 2°55.572 336.5 6.4 333.5 10.3
2002-05-17 07:03:18 51°13.911 2°55.566 336.7 6.4 333.9 10.3
2002-05-17 07:03:23 51°13.919 2°55.56 336.8 6.4 334.1 10.3
2002-05-17 07:03:28 51°13.927 2°55.554 337 6.4 334.1 10.3
2002-05-17 07:03:33 51°13.935 2°55.548 337 6.4 334.1 10.3
2002-05-17 07:03:38 51°13.943 2°55.541 337 6.4 334.2 10.2
2002-05-17 07:03:43 51°13.951 2°55.535 337 6.5 334.2 10.2
2002-05-17 07:03:48 51°13.959 2°55.529 337.5 6.4 334.4 10
2002-05-17 07:03:52 51°13.965 2°55.524 338.2 6.4 334.9 10.2
2002-05-17 07:03:58 51°13.975 2°55.517 338.3 6.4 335.2 10.1
2002-05-17 07:04:03 51°13.983 2°55.511 338.2 6.5 335.1 10.3
2002-05-17 07:04:08 51°13.992 2°55.505 338.2 6.5 335.2 10.3
2002-05-17 07:04:12 51°13.998 2°55.5 337.8 6.5 334.9 10.5
2002-05-17 07:04:18 51°14.008 2°55.493 338.3 6.5 335.2 10.4
2002-05-17 07:04:23 51°14.016 2°55.487 338.5 6.5 335.6 10.4
2002-05-17 07:04:27 51°14.023 2°55.482 338.8 6.5 336 10.1
2002-05-17 07:04:33 51°14.033 2°55.475 338.8 6.5 336.1 10.3
2002-05-17 07:04:38 51°14.041 2°55.469 339 6.6 336.4 9.8
2002-05-17 07:04:43 51°14.05 2°55.463 339 6.6 336.3 10.1
2002-05-17 07:04:48 51°14.058 2°55.457 339 6.6 336.3 10
2002-05-17 07:04:53 51°14.067 2°55.451 338.7 6.6 336.2 -999
2002-05-17 07:04:58 51°14.075 2°55.445 338.5 6.6 336.1 10.1
2002-05-17 07:05:03 51°14.083 2°55.439 338.2 6.6 335.8 10.2
2002-05-17 07:05:08 51°14.091 2°55.433 338 6.6 335.6 -999
2002-05-17 07:05:12 51°14.098 2°55.428 337.7 6.6 335.1 10.2
2002-05-17 07:05:17 51°14.106 2°55.422 337.3 6.6 334.8 10.1
2002-05-17 07:05:23 51°14.116 2°55.415 337.2 6.6 334.6 10.3
2002-05-17 07:05:28 51°14.124 2°55.408 337 6.6 334.3 10.3
2002-05-17 07:05:32 51°14.131 2°55.403 336.8 6.6 334.1 10.3
2002-05-17 07:05:37 51°14.139 2°55.397 336.5 6.6 333.8 10.3
2002-05-17 07:05:41 51°14.146 2°55.392 336.2 6.6 333.5 10.3
2002-05-17 07:05:48 51°14.157 2°55.382 336 6.6 333.3 10.3
2002-05-17 07:05:53 51°14.166 2°55.376 335.8 6.6 333.1 10.3
2002-05-17 07:05:57 51°14.172 2°55.37 335.7 6.6 332.9 10.3
2002-05-17 07:06:03 51°14.182 2°55.362 335.3 6.6 332.6 10.4
2002-05-17 07:06:08 51°14.19 2°55.355 334.5 6.6 332 10.4
2002-05-17 07:06:12 51°14.196 2°55.349 333.5 6.6 330.7 10.3
2002-05-17 07:06:18 51°14.206 2°55.34 332.2 6.6 329.5 10.4
2002-05-17 07:06:22 51°14.212 2°55.334 330.3 6.6 327.6 10.5
2002-05-17 07:06:28 51°14.221 2°55.324 328 6.5 325.9 10.5
2002-05-17 07:06:33 51°14.228 2°55.315 325.3 6.5 323.2 10.4
2002-05-17 07:06:38 51°14.235 2°55.305 322.7 6.5 321.3 10.5
2002-05-17 07:06:43 51°14.241 2°55.296 320.5 6.6 318.5 10.5
2002-05-17 07:06:48 51°14.248 2°55.286 319.3 6.6 317.5 10.5
2002-05-17 07:06:53 51°14.255 2°55.275 318.5 6.6 316.3 10.5
2002-05-17 07:06:58 51°14.261 2°55.265 318 6.6 315.7 10.2
2002-05-17 07:07:03 51°14.268 2°55.255 317.7 6.6 315 10.3
2002-05-17 07:07:08 51°14.274 2°55.245 317.3 6.7 314.6 10.3
2002-05-17 07:07:13 51°14.28 2°55.234 317 6.6 313.9 10.5
2002-05-17 07:07:18 51°14.286 2°55.223 316 6.6 313.4 10.5
2002-05-17 07:07:23 51°14.292 2°55.212 314.3 6.6 311.4 10.5
2002-05-17 07:07:28 51°14.298 2°55.201 313 6.6 310.2 10.4
2002-05-17 07:07:33 51°14.304 2°55.189 312 6.6 308.8 10.4
2002-05-17 07:07:38 51°14.31 2°55.177 311.2 6.6 308 10.2
2002-05-17 07:07:43 51°14.315 2°55.165 310.5 6.7 307.2 10.4
2002-05-17 07:07:48 51°14.32 2°55.153 310.2 6.7 306.7 10.3
2002-05-17 07:07:52 51°14.325 2°55.144 310 6.7 306.7 10.5
2002-05-17 07:07:58 51°14.331 2°55.13 309.8 6.7 306.5 17.2
2002-05-17 07:08:03 51°14.337 2°55.118 309.7 6.7 306.4 9.7
2002-05-17 07:08:08 51°14.343 2°55.106 309.2 6.7 306.2 10.1
2002-05-17 07:08:13 51°14.348 2°55.094 308.8 6.7 305.6 10.3
2002-05-17 07:08:18 51°14.353 2°55.082 308.3 6.7 305.3 10.6
2002-05-17 07:08:23 51°14.359 2°55.07 308 6.7 304.7 10.5
2002-05-17 07:08:28 51°14.364 2°55.058 308.7 6.7 304.9 10.2
2002-05-17 07:08:33 51°14.37 2°55.046 309.7 6.8 305.6 10.4
2002-05-17 07:08:37 51°14.374 2°55.035 311 6.9 306 10.2
2002-05-17 07:08:43 51°14.382 2°55.019 311.8 7.3 306.8 10.2
2002-05-17 07:08:48 51°14.389 2°55.005 311.7 7.8 306.7 10.2
2002-05-17 07:08:53 51°14.396 2°54.989 312.3 8.5 306.9 10.1
2002-05-17 07:08:58 51°14.405 2°54.972 314.2 9 307.9 10.1
2002-05-17 07:09:03 51°14.414 2°54.956 316.7 9.6 309.5 10.1
2002-05-17 07:09:08 51°14.423 2°54.939 318.7 10 311 10.1
2002-05-17 07:09:12 51°14.431 2°54.924 318.7 10.6 311.7 10.1
2002-05-17 07:09:17 51°14.442 2°54.906 319 10.9 311.8 10.1
2002-05-17 07:09:23 51°14.454 2°54.883 318.8 11.3 311.7 10
2002-05-17 07:09:28 51°14.465 2°54.864 318.8 11.5 311.3 10
2002-05-17 07:09:33 51°14.475 2°54.844 318.5 11.8 310.5 9.9
2002-05-17 07:09:38 51°14.486 2°54.824 318.5 11.9 310.3 9.9
2002-05-17 07:09:43 51°14.497 2°54.804 318.2 12 310.2 9.9
2002-05-17 07:09:47 51°14.506 2°54.787 318.5 12.1 310.3 9.9
2002-05-17 07:09:52 51°14.517 2°54.767 318.7 12.2 310.7 9.9
2002-05-17 07:09:58 51°14.53 2°54.742 319 12.3 310.9 9.6
2002-05-17 07:10:03 51°14.542 2°54.722 319.3 12.3 311.8 9.8
2002-05-17 07:10:08 51°14.554 2°54.703 321 12.3 312.4 9.3
2002-05-17 07:10:12 51°14.564 2°54.689 325 12.3 315.9 9.7
2002-05-17 07:10:18 51°14.58 2°54.668 327.7 12.2 318.3 9.7
2002-05-17 07:10:23 51°14.593 2°54.652 330.8 12.2 322.1 9.6
2002-05-17 07:10:28 51°14.607 2°54.637 332.8 12.1 323.7 15.7
2002-05-17 07:10:32 51°14.618 2°54.625 335.2 12 326.2 9.5
2002-05-17 07:10:38 51°14.635 2°54.608 336.2 12 327.4 9.7
2002-05-17 07:10:43 51°14.649 2°54.594 337.3 12 328.9 9.7
2002-05-17 07:10:48 51°14.664 2°54.581 338 12 329.7 9.7
2002-05-17 07:10:52 51°14.676 2°54.57 338.3 12 330.3 9.7
2002-05-17 07:10:58 51°14.693 2°54.555 339.2 12 330.9 9.7
2002-05-17 07:11:02 51°14.705 2°54.545 339.7 12 331.7 9.8
2002-05-17 07:11:08 51°14.723 2°54.53 339.8 12 332 9.8
2002-05-17 07:11:13 51°14.737 2°54.518 339.8 12 332.2 9.7
2002-05-17 07:11:18 51°14.752 2°54.505 339.7 12 332.2 9.7
2002-05-17 07:11:23 51°14.767 2°54.493 339.3 12 331.9 9.7
2002-05-17 07:11:27 51°14.778 2°54.483 338.8 12 331.6 9.7
2002-05-17 07:11:33 51°14.796 2°54.467 338.2 12 330.9 9.6
2002-05-17 07:11:37 51°14.808 2°54.456 337.5 12 330.4 9.6
2002-05-17 07:11:43 51°14.825 2°54.44 337 12.1 329.8 9.4
2002-05-17 07:11:48 51°14.839 2°54.426 336.7 12.1 329.6 9.4
2002-05-17 07:11:53 51°14.853 2°54.413 336.7 12 329.4 9.3
2002-05-17 07:11:58 51°14.868 2°54.399 336.8 12 329.4 9.3
2002-05-17 07:12:03 51°14.882 2°54.385 336.8 12 329.5 9.2
2002-05-17 07:12:08 51°14.897 2°54.372 337.3 12 329.8 9.1
2002-05-17 07:12:12 51°14.908 2°54.362 337.5 12 330.2 8.9
2002-05-17 07:12:17 51°14.923 2°54.348 337.7 12 330.4 8.8
2002-05-17 07:12:23 51°14.94 2°54.333 337.7 11.9 330.6 8.8
2002-05-17 07:12:28 51°14.955 2°54.32 337.8 11.9 330.7 8.7
2002-05-17 07:12:32 51°14.966 2°54.309 338 11.9 330.8 8.6
2002-05-17 07:12:38 51°14.983 2°54.294 338 11.9 330.9 8.6
2002-05-17 07:12:43 51°14.998 2°54.281 337.7 11.9 330.8 8.6
2002-05-17 07:12:47 51°15.009 2°54.271 337.5 11.9 330.7 8.6
2002-05-17 07:12:52 51°15.024 2°54.258 337.5 11.9 330.6 8.6
2002-05-17 07:12:58 51°15.041 2°54.242 337.2 11.9 330.4 8.6
2002-05-17 07:13:03 51°15.055 2°54.228 337 11.9 330.1 8.6
2002-05-17 07:13:08 51°15.069 2°54.215 337 11.9 329.9 8.7
2002-05-17 07:13:13 51°15.084 2°54.201 336.7 11.9 329.6 8.7
2002-05-17 07:13:18 51°15.098 2°54.188 337 11.9 329.7 8.8
2002-05-17 07:13:23 51°15.113 2°54.175 336.8 12 329.7 8.8
2002-05-17 07:13:28 51°15.127 2°54.161 337 12 329.9 8.8
2002-05-17 07:13:33 51°15.142 2°54.148 337.2 12.1 330 8.9
2002-05-17 07:13:37 51°15.154 2°54.137 337.2 12.3 330.1 9
2002-05-17 07:13:43 51°15.171 2°54.121 337.3 12.3 330 9.1
2002-05-17 07:13:48 51°15.186 2°54.107 336.8 12.3 329.9 9.2
2002-05-17 07:13:52 51°15.198 2°54.096 336.7 12.4 329.6 9.1
2002-05-17 07:13:58 51°15.216 2°54.078 336.5 12.4 329.4 9.3
2002-05-17 07:14:03 51°15.231 2°54.065 336.3 12.5 329.2 9.2
2002-05-17 07:14:08 51°15.246 2°54.051 337 12.5 329.5 9.2
2002-05-17 07:14:12 51°15.258 2°54.039 337 12.6 329.6 9.3
2002-05-17 07:14:18 51°15.276 2°54.022 336.8 12.6 329.7 9.4
2002-05-17 07:14:22 51°15.288 2°54.011 336.8 12.6 329.6 9.4
2002-05-17 07:14:28 51°15.306 2°53.994 336.8 12.6 329.6 9.5
2002-05-17 07:14:33 51°15.322 2°53.979 336.7 12.7 329.4 9.5
2002-05-17 07:14:38 51°15.337 2°53.965 336.3 12.6 329.3 9.6
2002-05-17 07:14:43 51°15.352 2°53.951 336.3 12.6 329.3 9.7
2002-05-17 07:14:48 51°15.367 2°53.936 336.3 12.7 329.3 9.7
2002-05-17 07:14:51 51°15.376 2°53.928 336.3 12.8 329.6 9.8
2002-05-17 07:14:57 51°15.394 2°53.911 336.8 12.7 329.7 9.8
2002-05-17 07:15:03 51°15.413 2°53.893 336.5 12.8 329.7 9.9
2002-05-17 07:15:08 51°15.428 2°53.879 336.2 12.8 329.5 9.9
2002-05-17 07:15:12 51°15.44 2°53.867 336.2 12.8 329.3 9.9
2002-05-17 07:15:18 51°15.459 2°53.85 335.8 12.8 329 10.1
2002-05-17 07:15:23 51°15.474 2°53.835 336 12.8 328.9 10.1
2002-05-17 07:15:28 51°15.489 2°53.82 335.8 12.9 328.7 10.2
2002-05-17 07:15:33 51°15.504 2°53.805 335.5 12.8 328.3 10.2
2002-05-17 07:15:37 51°15.516 2°53.793 335.7 12.8 328.3 10.3
2002-05-17 07:15:43 51°15.535 2°53.775 335.8 12.9 328.4 10.4
2002-05-17 07:15:48 51°15.55 2°53.76 335.8 12.9 328.6 10.5
2002-05-17 07:15:53 51°15.565 2°53.745 336.2 12.9 328.7 10.5
2002-05-17 07:15:58 51°15.581 2°53.731 336.3 12.8 328.9 10.6
2002-05-17 07:16:02 51°15.593 2°53.719 336 12.9 328.9 10.6
2002-05-17 07:16:08 51°15.611 2°53.701 335.8 12.9 328.8 10.7
2002-05-17 07:16:12 51°15.623 2°53.689 335.8 12.9 328.5 10.8
2002-05-17 07:16:17 51°15.639 2°53.673 335.7 12.9 328.6 10.9
2002-05-17 07:16:23 51°15.657 2°53.656 336.2 13 329 10.9
2002-05-17 07:16:28 51°15.673 2°53.641 336 12.9 329.1 11
2002-05-17 07:16:33 51°15.688 2°53.626 335.7 13 328.5 11
2002-05-17 07:16:37 51°15.701 2°53.614 335.5 13.1 328.3 11.1
2002-05-17 07:16:43 51°15.719 2°53.595 335.2 13.1 327.9 11.2
2002-05-17 07:16:48 51°15.734 2°53.58 335.2 13 327.9 11.2
2002-05-17 07:16:51 51°15.744 2°53.571 335.5 13.1 328 11.2
2002-05-17 07:16:58 51°15.765 2°53.549 335.8 13.2 328.2 11.3
2002-05-17 07:17:03 51°15.781 2°53.534 336.2 13.1 328.6 11.3
2002-05-17 07:17:08 51°15.796 2°53.519 336.2 13.1 328.9 11.2
2002-05-17 07:17:12 51°15.809 2°53.507 336.3 13.1 329 11.4
2002-05-17 07:17:18 51°15.828 2°53.489 336.2 13.1 328.9 11.3
2002-05-17 07:17:22 51°15.84 2°53.477 335.8 13.1 328.6 11.4
2002-05-17 07:17:28 51°15.858 2°53.459 336 13.1 328.7 11.5
2002-05-17 07:17:33 51°15.874 2°53.444 336 13.1 328.6 11.5
2002-05-17 07:17:37 51°15.886 2°53.432 335.8 13.1 328.7 11.6
2002-05-17 07:17:42 51°15.902 2°53.417 335.7 13.1 328.7 11.6
2002-05-17 07:17:48 51°15.921 2°53.399 336 13.1 329.1 11.7
2002-05-17 07:17:52 51°15.933 2°53.388 336.2 13.1 329.3 11.7
2002-05-17 07:17:58 51°15.952 2°53.37 336.3 13.1 329.4 11.7
2002-05-17 07:18:03 51°15.968 2°53.355 335.7 13.2 329.1 11.8
2002-05-17 07:18:08 51°15.983 2°53.339 335 13.1 328.4 11.8
2002-05-17 07:18:12 51°15.996 2°53.327 334.5 13.2 328.1 11.8
2002-05-17 07:18:18 51°16.014 2°53.308 334.2 13.2 327.7 11.9
2002-05-17 07:18:23 51°16.03 2°53.292 334 13.2 327.4 11.9
2002-05-17 07:18:28 51°16.045 2°53.276 333.8 13.2 327.1 11.9
2002-05-17 07:18:32 51°16.058 2°53.263 333.5 13.3 326.8 11.7
2002-05-17 07:18:38 51°16.076 2°53.244 333.3 13.4 326.7 11.9
2002-05-17 07:18:43 51°16.092 2°53.228 333.5 13.3 326.9 12.1
2002-05-17 07:18:47 51°16.104 2°53.215 334.2 13.3 327.3 11.9
2002-05-17 07:18:53 51°16.123 2°53.196 334.7 13.4 327.8 12.1
2002-05-17 07:18:58 51°16.139 2°53.181 334.8 13.3 328.1 12.2
2002-05-17 07:19:03 51°16.155 2°53.166 335.2 13.3 328.5 12.2
2002-05-17 07:19:08 51°16.17 2°53.15 335.3 13.4 328.4 12.2
2002-05-17 07:19:12 51°16.183 2°53.138 335.5 13.4 328.7 12.3
2002-05-17 07:19:18 51°16.202 2°53.119 334.3 13.4 328.2 12.3
2002-05-17 07:19:23 51°16.218 2°53.103 334.5 13.5 327.9 12.3
2002-05-17 07:19:28 51°16.234 2°53.087 334.3 13.5 327.9 12.4
2002-05-17 07:19:32 51°16.246 2°53.074 334.2 13.4 327.7 12.3
2002-05-17 07:19:37 51°16.262 2°53.058 334.3 13.5 327.8 12.3
2002-05-17 07:19:43 51°16.281 2°53.039 334.5 13.5 327.8 12.3
2002-05-17 07:19:47 51°16.294 2°53.027 334.5 13.5 328 12.3
2002-05-17 07:19:53 51°16.313 2°53.008 334.7 13.6 328.1 12.3
2002-05-17 07:19:58 51°16.329 2°52.992 336 13.6 328.9 12.3
2002-05-17 07:20:03 51°16.345 2°52.978 337 13.5 330 12.3
2002-05-17 07:20:08 51°16.362 2°52.964 338.2 13.5 331.1 12.2
2002-05-17 07:20:12 51°16.376 2°52.952 339 13.5 332 12.2
2002-05-17 07:20:18 51°16.396 2°52.936 339.3 13.4 332.3 12.2
2002-05-17 07:20:23 51°16.412 2°52.922 339.5 13.4 332.7 12.1
2002-05-17 07:20:28 51°16.429 2°52.91 341.2 13.4 333.6 12.2
2002-05-17 07:20:32 51°16.443 2°52.9 342.7 13.4 335.4 12.1
2002-05-17 07:20:37 51°16.46 2°52.888 343.8 13.4 336.7 12
2002-05-17 07:20:43 51°16.481 2°52.875 344.8 13.4 337.7 11.7
2002-05-17 07:20:47 51°16.495 2°52.866 345.3 13.4 338.2 10.3
2002-05-17 07:20:53 51°16.516 2°52.853 346.2 13.4 338.9 11.7
2002-05-17 07:20:58 51°16.533 2°52.843 346.5 13.4 339.3 11.3
2002-05-17 07:21:03 51°16.551 2°52.832 346.3 13.5 339.3 11
2002-05-17 07:21:08 51°16.568 2°52.822 346.5 13.5 339.3 7.7
2002-05-17 07:21:13 51°16.586 2°52.811 346.3 13.4 339.1 -999
2002-05-17 07:21:18 51°16.603 2°52.8 346.2 13.4 339.1 5.5
2002-05-17 07:21:23 51°16.62 2°52.79 346.3 13.4 339 5.2
2002-05-17 07:21:28 51°16.638 2°52.779 346.2 13.5 339 5.4
2002-05-17 07:21:33 51°16.655 2°52.768 345.7 13.5 338.8 -999
2002-05-17 07:21:38 51°16.673 2°52.757 345.7 13.5 338.7 11
2002-05-17 07:21:43 51°16.69 2°52.746 345.5 13.5 338.7 10.7
2002-05-17 07:21:48 51°16.708 2°52.735 345.3 13.6 338.6 10.6
2002-05-17 07:21:53 51°16.725 2°52.724 345.7 13.5 338.8 10.4
2002-05-17 07:21:57 51°16.74 2°52.716 346.2 13.5 339.2 9.9
2002-05-17 07:22:03 51°16.761 2°52.703 346.3 13.5 339.5 9.5
2002-05-17 07:22:08 51°16.778 2°52.693 346.3 13.5 339.6 9.5
2002-05-17 07:22:13 51°16.795 2°52.682 346.3 13.4 339.6 9.6
2002-05-17 07:22:18 51°16.813 2°52.673 347.5 13.4 340.3 9.7
2002-05-17 07:22:23 51°16.831 2°52.664 349 13.4 341.9 9.6
2002-05-17 07:22:28 51°16.849 2°52.656 350.3 13.4 343.1 9.3
2002-05-17 07:22:32 51°16.863 2°52.649 351.2 13.4 344.4 9.4
2002-05-17 07:22:38 51°16.884 2°52.64 351.7 13.4 345 9.4
2002-05-17 07:22:43 51°16.902 2°52.633 352.2 13.3 345.3 9.6
2002-05-17 07:22:48 51°16.92 2°52.626 352.3 13.2 345.5 9.5
2002-05-17 07:22:53 51°16.938 2°52.618 351.8 13.2 345.3 9.6
2002-05-17 07:22:58 51°16.956 2°52.61 351.8 13.3 345.2 10
2002-05-17 07:23:02 51°16.97 2°52.604 351 13.4 344.6 -999
2002-05-17 07:23:08 51°16.992 2°52.594 351 13.5 344.4 10
2002-05-17 07:23:13 51°17.01 2°52.586 350.2 13.5 343.8 9.7
2002-05-17 07:23:18 51°17.028 2°52.577 350.5 13.5 343.8 9.6
2002-05-17 07:23:23 51°17.045 2°52.569 350.5 13.4 343.9 9.4
2002-05-17 07:23:28 51°17.063 2°52.56 349.8 13.5 343.9 9.1
2002-05-17 07:23:33 51°17.081 2°52.553 351.3 13.4 344.5 9.5
2002-05-17 07:23:38 51°17.099 2°52.546 352.8 13.4 345.7 9.5
2002-05-17 07:23:43 51°17.117 2°52.541 355.7 13.4 348.1 9.4
2002-05-17 07:23:48 51°17.136 2°52.536 357.7 13.3 350.1 9.2
2002-05-17 07:23:53 51°17.154 2°52.533   13.3 352.4 -999
2002-05-17 07:23:59 51°17.176 2°52.529 0.2 13.3 353.5 -999
2002-05-17 07:24:04 51°17.195 2°52.527 1.5 13.3 354.3 -999
2002-05-17 07:24:08 51°17.209 2°52.524 0.8 13.3 354.4 7.1
2002-05-17 07:24:13 51°17.228 2°52.521 1.3 13.3 354.5 6.3
2002-05-17 07:24:18 51°17.246 2°52.518 1.2 13.4 354.5 8.7
2002-05-17 07:24:23 51°17.265 2°52.516 1.8 13.4 354.9 9.6
2002-05-17 07:24:28 51°17.284 2°52.513 1.8 13.4 355.1 9.8
2002-05-17 07:24:33 51°17.302 2°52.511 1.8 13.5 355.3 9.9
2002-05-17 07:24:37 51°17.317 2°52.508 1.5 13.5 355 9.7
2002-05-17 07:24:42 51°17.336 2°52.506 1.3 13.5 354.9 9.9
2002-05-17 07:24:48 51°17.358 2°52.502 1 13.6 354.6 9.8
2002-05-17 07:24:53 51°17.376 2°52.499 1.2 13.5 354.6 9.9
2002-05-17 07:24:58 51°17.395 2°52.496 0.8 13.5 354.4 10.1
2002-05-17 07:25:03 51°17.414 2°52.493 1.2 13.5 354.3 9.9
2002-05-17 07:25:08 51°17.432 2°52.49 0.7 13.5 354.2 10.2
2002-05-17 07:25:12 51°17.447 2°52.487 0.7 13.5 353.9 10.1
2002-05-17 07:25:17 51°17.466 2°52.484 0.7 13.4 354 10.1
2002-05-17 07:25:23 51°17.488 2°52.48 0.5 13.4 353.8 9.9
2002-05-17 07:25:28 51°17.506 2°52.477 0.8 13.4 353.8 10.2
2002-05-17 07:25:32 51°17.522 2°52.475 0.8 13.4 353.9 10.1
2002-05-17 07:25:37 51°17.54 2°52.471 0.5 13.4 353.7 10.3
2002-05-17 07:25:43 51°17.562 2°52.467 0.3 13.4 353.4 10.3
2002-05-17 07:25:48 51°17.581 2°52.464 0.5 13.4 353.3 9.9
2002-05-17 07:25:52 51°17.596 2°52.461 0.3 13.4 353.1 10.2
2002-05-17 07:25:58 51°17.618 2°52.457 0.5 13.4 353.2 10.2
2002-05-17 07:26:03 51°17.637 2°52.453 0.7 13.4 353.4 10.3
2002-05-17 07:26:07 51°17.651 2°52.45 0.7 13.4 353.5 10.3
2002-05-17 07:26:12 51°17.67 2°52.448 3.3 13.4 355.1 10.1
2002-05-17 07:26:18 51°17.691 2°52.447 5.5 13.3 356.7 10.2
2002-05-17 07:26:23 51°17.71 2°52.447 7.7 13.2 359.2 10.2
2002-05-17 07:26:28 51°17.728 2°52.448 9.2 13.2 0.7 10.3
2002-05-17 07:26:33 51°17.746 2°52.449 10 13.2 2.1 10.2
2002-05-17 07:26:37 51°17.761 2°52.45 10.7 13.1 2.6 10.1
2002-05-17 07:26:43 51°17.782 2°52.452 11 13.1 3.2 10
2002-05-17 07:26:48 51°17.8 2°52.455 11.7 13.1 4.2 10.1
2002-05-17 07:26:53 51°17.818 2°52.458 13.8 13.1 6 10.2
2002-05-17 07:26:58 51°17.836 2°52.464 17.7 13.1 9 10.3
2002-05-17 07:27:02 51°17.85 2°52.469 19.7 13 12 10.1
2002-05-17 07:27:08 51°17.871 2°52.479 22.7 12.9 14.4 10.3
2002-05-17 07:27:12 51°17.884 2°52.485 23.3 12.9 16.2 10.3
2002-05-17 07:27:17 51°17.901 2°52.494 25 12.9 17.4 10.2
2002-05-17 07:27:22 51°17.918 2°52.503 26.2 12.9 18.8 10.5
2002-05-17 07:27:28 51°17.938 2°52.515 26.7 12.9 19.4 10.4
2002-05-17 07:27:33 51°17.955 2°52.524 26.8 12.9 19.8 10.4
2002-05-17 07:27:37 51°17.969 2°52.533 27.5 12.9 20.2 10.1
2002-05-17 07:27:42 51°17.985 2°52.543 27.7 12.9 21 10.4
2002-05-17 07:27:48 51°18.005 2°52.556 29.3 12.9 22 10.3
2002-05-17 07:27:53 51°18.021 2°52.569 31.8 12.8 24.7 10.4
2002-05-17 07:27:58 51°18.036 2°52.583 34.7 12.8 27 10.3
2002-05-17 07:28:03 51°18.051 2°52.598 38.2 12.8 30.8 10.4
2002-05-17 07:28:08 51°18.066 2°52.615 41.8 12.7 35.6 10.4
2002-05-17 07:28:12 51°18.077 2°52.629 45.3 12.6 38.5 10.4
2002-05-17 07:28:18 51°18.092 2°52.652 47.2 12.6 41 10.5
2002-05-17 07:28:23 51°18.105 2°52.672 50.3 12.6 44.5 10.5
2002-05-17 07:28:28 51°18.116 2°52.693 53.7 12.6 47.1 10.5
2002-05-17 07:28:33 51°18.126 2°52.716 57.3 12.6 51.6 10.5
2002-05-17 07:28:38 51°18.136 2°52.739 59.3 12.6 54.2 10.6
2002-05-17 07:28:43 51°18.146 2°52.762 61 12.5 56.2 10.6
2002-05-17 07:28:47 51°18.153 2°52.781 62.5 12.5 57.2 10.5
2002-05-17 07:28:53 51°18.164 2°52.809 62.8 12.5 58.5 10.6
2002-05-17 07:28:58 51°18.173 2°52.833 63 12.6 58.6 10.7
2002-05-17 07:29:03 51°18.182 2°52.857 63.7 12.6 59.2 10.4
2002-05-17 07:29:08 51°18.191 2°52.881 63.2 12.6 59.2 10.7
2002-05-17 07:29:13 51°18.2 2°52.905 63.5 12.6 59.6 10.6
2002-05-17 07:29:18 51°18.208 2°52.929 64 12.5 59.7 10.7
2002-05-17 07:29:23 51°18.217 2°52.953 63.8 12.5 59.6 10.5
2002-05-17 07:29:27 51°18.225 2°52.972 63.5 12.6 59.6 10.7
2002-05-17 07:29:32 51°18.234 2°52.996 63.2 12.6 59.1 10.7
2002-05-17 07:29:37 51°18.243 2°53.019 62.7 12.6 58.7 10.6
2002-05-17 07:29:43 51°18.254 2°53.048 62.3 12.6 58.8 10.5
2002-05-17 07:29:48 51°18.263 2°53.073 64 12.6 59.2 10.7
2002-05-17 07:29:52 51°18.269 2°53.093 66.7 12.6 62.2 10.6
2002-05-17 07:29:57 51°18.276 2°53.118 69 12.6 64.1 10.7
2002-05-17 07:30:02 51°18.283 2°53.143 70 12.6 66 10.7
2002-05-17 07:30:07 51°18.29 2°53.169 69.8 12.7 66.5 10.7
2002-05-17 07:30:13 51°18.298 2°53.199 69 12.6 66 10.6
2002-05-17 07:30:17 51°18.304 2°53.218 68.3 12.6 65.3 10.5
2002-05-17 07:30:23 51°18.312 2°53.248 67.7 12.6 64.3 10.6
2002-05-17 07:30:28 51°18.32 2°53.273 67.5 12.6 63.9 10.6
2002-05-17 07:30:33 51°18.328 2°53.298 66.5 12.6 63.2 10.5
2002-05-17 07:30:38 51°18.336 2°53.322 66.7 12.6 62.9 10.6
2002-05-17 07:30:43 51°18.344 2°53.347 66.3 12.6 62.4 10.7
2002-05-17 07:30:48 51°18.352 2°53.372 67 12.6 62.8 10.6
2002-05-17 07:30:53 51°18.36 2°53.396 66.3 12.6 62.5 10.7
2002-05-17 07:30:58 51°18.368 2°53.421 66.7 12.6 62.4 10.6
2002-05-17 07:31:03 51°18.376 2°53.446 67 12.6 62.8 10.8
2002-05-17 07:31:08 51°18.384 2°53.471 67.3 12.6 63 10.5
2002-05-17 07:31:12 51°18.39 2°53.491 67.3 12.6 63.2 10.7
2002-05-17 07:31:18 51°18.399 2°53.521 67.5 12.6 63.2 10.6
2002-05-17 07:31:23 51°18.407 2°53.546 67.8 12.6 63.7 10.8
2002-05-17 07:31:28 51°18.415 2°53.57 67.3 12.6 63.4 10.6
2002-05-17 07:31:33 51°18.422 2°53.595 67 12.6 63.1 10.7
2002-05-17 07:31:38 51°18.431 2°53.619 66.3 12.6 62.6 10.7
2002-05-17 07:31:43 51°18.439 2°53.644 66.7 12.5 62.3 10.7
2002-05-17 07:31:48 51°18.447 2°53.668 66.5 12.5 62.4 10.7
2002-05-17 07:31:51 51°18.452 2°53.683 66.7 12.6 62.5 10.7
2002-05-17 07:31:58 51°18.463 2°53.718 66.7 12.6 62.5 10.7
2002-05-17 07:32:03 51°18.471 2°53.742 67 12.6 62.7 10.7
2002-05-17 07:32:08 51°18.479 2°53.767 67.2 12.6 62.8 10.7
2002-05-17 07:32:13 51°18.487 2°53.792 67 12.5 62.7 10.7
2002-05-17 07:32:17 51°18.494 2°53.811 67 12.5 62.9 10.7
2002-05-17 07:32:23 51°18.503 2°53.841 66.7 12.5 62.7 10.7
2002-05-17 07:32:28 51°18.512 2°53.865 66.5 12.5 62.4 10.6
2002-05-17 07:32:33 51°18.52 2°53.889 65.5 12.5 61.5 10.7
2002-05-17 07:32:38 51°18.528 2°53.913 65.2 12.5 61 10.7
2002-05-17 07:32:43 51°18.537 2°53.937 65 12.5 60.7 10.7
2002-05-17 07:32:48 51°18.545 2°53.961 65.5 12.5 60.8 10.7
2002-05-17 07:32:53 51°18.553 2°53.985 65.8 12.5 61.5 10.7
2002-05-17 07:32:58 51°18.561 2°54.009 65.8 12.5 61.8 10.6
2002-05-17 07:33:03 51°18.569 2°54.034 66.5 12.5 62 10.7
2002-05-17 07:33:08 51°18.577 2°54.059 65.8 12.5 61.9 10.7
2002-05-17 07:33:13 51°18.586 2°54.083 66 12.5 61.8 10.7
2002-05-17 07:33:18 51°18.594 2°54.107 65.8 12.5 61.8 10.7
2002-05-17 07:33:23 51°18.602 2°54.131 65.7 12.5 61.6 10.8
2002-05-17 07:33:27 51°18.609 2°54.15 65.8 12.5 61.5 10.8
2002-05-17 07:33:33 51°18.619 2°54.179 65.8 12.5 61.5 10.8
2002-05-17 07:33:38 51°18.627 2°54.203 66 12.5 61.6 10.7
2002-05-17 07:33:43 51°18.636 2°54.228 65.8 12.5 61.7 10.7
2002-05-17 07:33:47 51°18.642 2°54.247 66 12.5 61.6 10.6
2002-05-17 07:33:53 51°18.652 2°54.276 66 12.6 61.3 10.8
2002-05-17 07:33:58 51°18.66 2°54.3 65.7 12.6 61.1 10.8
2002-05-17 07:34:02 51°18.666 2°54.319 65.8 12.5 61.3 10.8
2002-05-17 07:34:08 51°18.677 2°54.349 65.5 12.5 61.4 10.8
2002-05-17 07:34:13 51°18.685 2°54.372 65.3 12.6 60.9 10.8
2002-05-17 07:34:18 51°18.693 2°54.396 65.7 12.5 61.1 10.8
2002-05-17 07:34:23 51°18.701 2°54.42 65.2 12.5 61 10.8
2002-05-17 07:34:28 51°18.71 2°54.445 65.5 12.4 60.9 10.8
2002-05-17 07:34:33 51°18.719 2°54.469 65.3 12.5 60.9 10.8
2002-05-17 07:34:38 51°18.727 2°54.493 65.5 12.5 60.9 10.6
2002-05-17 07:34:42 51°18.734 2°54.512 65.2 12.5 60.8 10.8
2002-05-17 07:34:48 51°18.744 2°54.541 65.2 12.5 60.6 10.8
2002-05-17 07:34:53 51°18.752 2°54.565 65.3 12.5 60.7 10.8
2002-05-17 07:34:58 51°18.761 2°54.589 65.2 12.5 60.7 10.8
2002-05-17 07:35:03 51°18.769 2°54.613 65.7 12.5 61.1 10.8
2002-05-17 07:35:08 51°18.777 2°54.638 65.3 12.6 61.1 10.8
2002-05-17 07:35:13 51°18.786 2°54.662 65.3 12.5 61 10.8
2002-05-17 07:35:17 51°18.793 2°54.681 65.3 12.5 61.2 10.7
2002-05-17 07:35:22 51°18.801 2°54.705 64.8 12.5 60.6 10.8
2002-05-17 07:35:28 51°18.811 2°54.734 65.3 12.5 60.9 10.8
2002-05-17 07:35:33 51°18.819 2°54.758 65 12.5 60.7 10.8
2002-05-17 07:35:37 51°18.826 2°54.778 65.2 12.5 60.7 10.8
2002-05-17 07:35:42 51°18.835 2°54.802 65.2 12.5 60.7 10.8
2002-05-17 07:35:48 51°18.845 2°54.831 65.2 12.5 60.6 10.8
2002-05-17 07:35:53 51°18.853 2°54.854 65.5 12.4 61 10.8
2002-05-17 07:35:58 51°18.862 2°54.878 65.3 12.4 61.1 10.8
2002-05-17 07:36:03 51°18.87 2°54.902 65.8 12.4 61.4 10.8
2002-05-17 07:36:08 51°18.878 2°54.926 65.8 12.4 61.5 10.8
2002-05-17 07:36:12 51°18.884 2°54.945 65.7 12.4 61.5 10.8
2002-05-17 07:36:18 51°18.894 2°54.974 65.5 12.4 61.3 10.8
2002-05-17 07:36:23 51°18.903 2°54.998 64.7 12.4 60.6 10.8
2002-05-17 07:36:28 51°18.912 2°55.022 64.7 12.4 60.3 10.8
2002-05-17 07:36:33 51°18.921 2°55.046 64.3 12.4 59.9 10.8
2002-05-17 07:36:37 51°18.927 2°55.065 64.7 12.4 59.8 10.9
2002-05-17 07:36:42 51°18.936 2°55.089 64.7 12.5 60 10.8
2002-05-17 07:36:48 51°18.947 2°55.118 64.5 12.5 60 10.9
2002-05-17 07:36:53 51°18.955 2°55.142 65 12.5 60.1 10.8
2002-05-17 07:36:58 51°18.964 2°55.166 65 12.5 60.1 10.8
2002-05-17 07:37:03 51°18.972 2°55.19 64.8 12.5 60.1 10.8
2002-05-17 07:37:08 51°18.981 2°55.214 64.8 12.5 59.8 10.8
2002-05-17 07:37:12 51°18.988 2°55.233 64.5 12.5 59.8 10.8
2002-05-17 07:37:18 51°18.999 2°55.262 64.7 12.6 59.6 10.8
2002-05-17 07:37:23 51°19.008 2°55.286 65 12.6 59.7 10.8
2002-05-17 07:37:28 51°19.017 2°55.31 64.8 12.7 59.9 10.8
2002-05-17 07:37:33 51°19.025 2°55.334 65.3 12.6 60.1 10.8
2002-05-17 07:37:37 51°19.031 2°55.353 66.2 12.6 60.8 10.8
2002-05-17 07:37:43 51°19.041 2°55.382 66.5 12.6 61.2 10.8
2002-05-17 07:37:48 51°19.05 2°55.407 66.5 12.7 61.4 10.8
2002-05-17 07:37:53 51°19.058 2°55.431 66.7 12.7 61.5 10.8
2002-05-17 07:37:58 51°19.067 2°55.456 67.2 12.6 61.8 10.8
2002-05-17 07:38:03 51°19.076 2°55.481 66.5 12.7 61.6 10.8
2002-05-17 07:38:08 51°19.084 2°55.505 66.3 12.6 61.4 10.8
2002-05-17 07:38:12 51°19.091 2°55.525 66.5 12.6 61.3 10.8
2002-05-17 07:38:18 51°19.101 2°55.555 66.5 12.7 61.3 10.8
2002-05-17 07:38:23 51°19.11 2°55.579 66.5 12.7 61.5 10.8
2002-05-17 07:38:28 51°19.118 2°55.604 66.8 12.7 61.7 10.8
2002-05-17 07:38:33 51°19.127 2°55.629 66.5 12.7 61.5 10.8
2002-05-17 07:38:37 51°19.133 2°55.648 66.3 12.6 61.6 10.8
2002-05-17 07:38:42 51°19.141 2°55.673 67.5 12.6 62.1 10.8
2002-05-17 07:38:48 51°19.15 2°55.703 68.5 12.6 63.6 10.8
2002-05-17 07:38:53 51°19.158 2°55.728 69.5 12.6 64.4 10.7
2002-05-17 07:38:58 51°19.165 2°55.753 70 12.7 65.1 10.7
2002-05-17 07:39:03 51°19.172 2°55.779 70.7 12.7 65.7 10.7
2002-05-17 07:39:08 51°19.179 2°55.804 71.2 12.6 66.1 10.7
2002-05-17 07:39:13 51°19.186 2°55.829 71.2 12.5 66.2 10.7
2002-05-17 07:39:18 51°19.193 2°55.855 70.7 12.5 65.9 10.7
2002-05-17 07:39:23 51°19.2 2°55.88 70.7 12.5 65.6 10.7
2002-05-17 07:39:28 51°19.207 2°55.905 70.8 12.5 65.6 10.7
2002-05-17 07:39:33 51°19.215 2°55.93 70.5 12.5 65.5 10.7
2002-05-17 07:39:37 51°19.221 2°55.95 70.3 12.5 65.4 10.7
2002-05-17 07:39:42 51°19.228 2°55.975 70.5 12.5 65.3 10.7
2002-05-17 07:39:48 51°19.236 2°56.005 70.7 12.5 65.5 10.6
2002-05-17 07:39:53 51°19.243 2°56.03 71.2 12.4 66 10.6
2002-05-17 07:39:57 51°19.249 2°56.051 71.3 12.4 66.2 10.6
2002-05-17 07:40:03 51°19.258 2°56.081 71.3 12.5 66.4 10.7
2002-05-17 07:40:08 51°19.265 2°56.107 71.5 12.5 66.6 10.7
2002-05-17 07:40:13 51°19.272 2°56.132 71.3 12.5 66.5 10.5
2002-05-17 07:40:18 51°19.279 2°56.157 71.2 12.5 66.5 10.6
2002-05-17 07:40:22 51°19.284 2°56.177 71.3 12.5 66.4 10.6
2002-05-17 07:40:28 51°19.293 2°56.207 71 12.5 66.2 10.6
2002-05-17 07:40:33 51°19.3 2°56.232 70.5 12.4 65.8 10.5
2002-05-17 07:40:37 51°19.306 2°56.252 70.2 12.4 65.3 10.6
2002-05-17 07:40:42 51°19.313 2°56.277 70.2 12.4 65 10.5
2002-05-17 07:40:48 51°19.322 2°56.307 69.8 12.5 64.7 10.6
2002-05-17 07:40:53 51°19.329 2°56.332 70 12.5 64.7 10.5
2002-05-17 07:40:58 51°19.337 2°56.357 70.2 12.5 64.8 10.6
2002-05-17 07:41:03 51°19.344 2°56.382 70.7 12.4 65.4 10.5
2002-05-17 07:41:07 51°19.35 2°56.402 71.3 12.4 65.8 10.5
2002-05-17 07:41:13 51°19.358 2°56.432 71.5 12.5 66.4 10.5
2002-05-17 07:41:18 51°19.365 2°56.457 71.3 12.5 66.5 10.5
2002-05-17 07:41:23 51°19.371 2°56.483 71.7 12.4 66.6 10.5
2002-05-17 07:41:28 51°19.378 2°56.508 71.5 12.5 66.4 10.5
2002-05-17 07:41:33 51°19.386 2°56.533 71 12.5 66 10.5
2002-05-17 07:41:38 51°19.393 2°56.558 70.7 12.5 65.8 10.5
2002-05-17 07:41:43 51°19.4 2°56.583 70.2 12.5 65.3 10.5
2002-05-17 07:41:48 51°19.408 2°56.607 69.8 12.5 64.8 10.4
2002-05-17 07:41:52 51°19.413 2°56.628 69.8 12.5 64.8 10.5
2002-05-17 07:41:58 51°19.422 2°56.657 69.8 12.5 64.6 10.5
2002-05-17 07:42:03 51°19.43 2°56.682 70 12.5 64.9 10.5
2002-05-17 07:42:07 51°19.436 2°56.702 70.5 12.5 65.1 10.4
2002-05-17 07:42:13 51°19.444 2°56.733 71.5 12.5 66.2 10.4
2002-05-17 07:42:18 51°19.451 2°56.758 71.8 12.5 66.6 10.4
2002-05-17 07:42:23 51°19.457 2°56.784 72.8 12.5 67.7 10.4
2002-05-17 07:42:28 51°19.463 2°56.809 73.5 12.5 68.6 10.4
2002-05-17 07:42:33 51°19.469 2°56.835 73.8 12.4 69.1 10.4
2002-05-17 07:42:37 51°19.474 2°56.855 74 12.4 69.5 10.4
2002-05-17 07:42:43 51°19.482 2°56.886 74.2 12.4 69.6 10.4
2002-05-17 07:42:48 51°19.488 2°56.912 74 12.4 69.4 10.4
2002-05-17 07:42:53 51°19.494 2°56.937 73.7 12.5 69.1 10.3
2002-05-17 07:42:58 51°19.5 2°56.963 73.2 12.5 68.6 10.3
2002-05-17 07:43:03 51°19.506 2°56.988 73.2 12.4 68.3 10.2
2002-05-17 07:43:08 51°19.513 2°57.014 73 12.4 68.3 10.3
2002-05-17 07:43:13 51°19.519 2°57.04 72.7 12.5 68.1 10.3
2002-05-17 07:43:17 51°19.524 2°57.06 72.5 12.4 68 10.3
2002-05-17 07:43:23 51°19.531 2°57.09 73 12.4 68.3 10.3
2002-05-17 07:43:28 51°19.538 2°57.116 73 12.4 68.5 10.2
2002-05-17 07:43:33 51°19.544 2°57.142 73 12.5 68.5 10.2
2002-05-17 07:43:38 51°19.55 2°57.167 73 12.4 68.4 10.2
2002-05-17 07:43:43 51°19.556 2°57.193 72.8 12.4 68.3 10.2
2002-05-17 07:43:48 51°19.563 2°57.218 73 12.4 68.3 10.2
2002-05-17 07:43:53 51°19.569 2°57.244 72.7 12.4 68.3 10.2
2002-05-17 07:43:58 51°19.575 2°57.269 73 12.4 68.5 10.2
2002-05-17 07:44:03 51°19.581 2°57.295 73.5 12.3 69.1 10.2
2002-05-17 07:44:08 51°19.587 2°57.32 73 12.4 69 10.2
2002-05-17 07:44:13 51°19.594 2°57.346 73 12.4 68.7 10.2
2002-05-17 07:44:18 51°19.6 2°57.371 73 12.4 68.6 10.2
2002-05-17 07:44:23 51°19.606 2°57.396 73 12.3 68.4 10.2
2002-05-17 07:44:27 51°19.611 2°57.417 72.7 12.3 68.2 10.2
2002-05-17 07:44:33 51°19.619 2°57.447 72 12.3 67.4 10.2
2002-05-17 07:44:38 51°19.625 2°57.471 72.5 12.3 67.3 10.2
2002-05-17 07:44:43 51°19.631 2°57.497 72.7 12.3 67.4 10.2
2002-05-17 07:44:48 51°19.637 2°57.522 72.8 12.3 67.9 10.2
2002-05-17 07:44:53 51°19.644 2°57.547 73.3 12.3 68.2 10.2
2002-05-17 07:44:58 51°19.65 2°57.572 73.8 12.3 68.6 10.2
2002-05-17 07:45:02 51°19.655 2°57.593 74 12.3 69 10.2
2002-05-17 07:45:08 51°19.662 2°57.623 74 12.3 69.1 10.2
2002-05-17 07:45:12 51°19.667 2°57.643 74 12.3 69.2 10.2
2002-05-17 07:45:18 51°19.674 2°57.674 74.3 12.3 69.4 10.2
2002-05-17 07:45:23 51°19.68 2°57.699 73.8 12.3 69 10.1
2002-05-17 07:45:28 51°19.686 2°57.724 73.7 12.3 68.9 10.1
2002-05-17 07:45:33 51°19.692 2°57.749 73 12.2 68.3 10.1
2002-05-17 07:45:37 51°19.697 2°57.769 72.8 12.3 68 10
2002-05-17 07:45:42 51°19.704 2°57.794 72.5 12.3 67.5 10
2002-05-17 07:45:48 51°19.711 2°57.824 72.7 12.3 67.6 10
2002-05-17 07:45:53 51°19.718 2°57.849 72.8 12.2 67.6 10
2002-05-17 07:45:58 51°19.724 2°57.874 73.2 12.2 67.9 10
2002-05-17 07:46:03 51°19.73 2°57.899 73.2 12.2 68.1 9.9
2002-05-17 07:46:08 51°19.737 2°57.925 73 12.2 67.9 10
2002-05-17 07:46:13 51°19.744 2°57.95 73.2 12.2 68.1 10
2002-05-17 07:46:18 51°19.751 2°57.976 72.8 12.2 67.7 10
2002-05-17 07:46:23 51°19.757 2°58.002 72.8 12.2 67.7 10
2002-05-17 07:46:28 51°19.764 2°58.028 72.8 12.2 67.4 10
2002-05-17 07:46:32 51°19.769 2°58.047 73.3 12.2 67.7 10
2002-05-17 07:46:38 51°19.776 2°58.077 73.7 12.2 68.2 10
2002-05-17 07:46:43 51°19.783 2°58.102 74 12.1 68.6 9.9
2002-05-17 07:46:47 51°19.788 2°58.123 74 12.1 68.8 9.9
2002-05-17 07:46:53 51°19.796 2°58.153 73.7 12.1 68.7 9.9
2002-05-17 07:46:58 51°19.802 2°58.178 73.3 12.1 68.3 10
2002-05-17 07:47:03 51°19.808 2°58.202 73.2 12.1 68 10
2002-05-17 07:47:08 51°19.814 2°58.227 73.3 12.1 67.9 10
2002-05-17 07:47:13 51°19.82 2°58.251 73 12.1 67.7 9.9
2002-05-17 07:47:18 51°19.827 2°58.275 73 12.1 67.8 10
2002-05-17 07:47:23 51°19.833 2°58.3 73.3 12.1 67.9 9.9
2002-05-17 07:47:28 51°19.839 2°58.324 73.2 12.1 67.8 10
2002-05-17 07:47:32 51°19.844 2°58.344 73.2 12.1 67.8 9.9
2002-05-17 07:47:38 51°19.851 2°58.373 73.2 12 67.6 10
2002-05-17 07:47:43 51°19.856 2°58.397 73.5 12 67.9 9.9
2002-05-17 07:47:47 51°19.862 2°58.416 73.3 12 67.9 9.9
2002-05-17 07:47:53 51°19.869 2°58.446 73.7 12 68.1 9.9
2002-05-17 07:47:58 51°19.875 2°58.47 73.7 12 68.1 9.9
2002-05-17 07:48:03 51°19.881 2°58.494 73.7 11.9 68.3 9.8
2002-05-17 07:48:08 51°19.887 2°58.519 73.3 12 67.9 9.9
2002-05-17 07:48:13 51°19.893 2°58.543 73.2 12 67.8 9.9
2002-05-17 07:48:18 51°19.899 2°58.568 73.3 12 67.7 9.9
2002-05-17 07:48:23 51°19.905 2°58.592 73.7 11.9 67.9 9.9
2002-05-17 07:48:28 51°19.911 2°58.617 73.5 11.9 68 9.9
2002-05-17 07:48:33 51°19.917 2°58.641 73.3 12 67.8 9.9
2002-05-17 07:48:37 51°19.922 2°58.66 73.3 11.9 68 9.9
2002-05-17 07:48:43 51°19.93 2°58.689 73.3 11.9 67.8 9.9
2002-05-17 07:48:48 51°19.936 2°58.714 73.2 11.9 67.9 9.9
2002-05-17 07:48:53 51°19.942 2°58.738 73.3 11.9 67.7 9.9
2002-05-17 07:48:58 51°19.948 2°58.763 73.5 11.9 68 9.8
2002-05-17 07:49:03 51°19.955 2°58.787 73.3 11.9 68.1 9.8
2002-05-17 07:49:08 51°19.961 2°58.812 73.5 11.9 68.1 9.8
2002-05-17 07:49:13 51°19.967 2°58.836 73.7 11.9 68.3 9.8
2002-05-17 07:49:18 51°19.973 2°58.86 73.5 11.9 68.1 9.8
2002-05-17 07:49:23 51°19.979 2°58.885 73 11.9 67.8 9.8
2002-05-17 07:49:28 51°19.986 2°58.909 73.2 11.9 67.8 9.8
2002-05-17 07:49:32 51°19.99 2°58.929 73.3 11.9 67.8 9.8
2002-05-17 07:49:38 51°19.998 2°58.958 73 11.9 67.6 9.8
2002-05-17 07:49:43 51°20.005 2°58.982 72.7 12 67.3 9.8
2002-05-17 07:49:47 51°20.01 2°59.002 72.8 11.9 67.5 9.8
2002-05-17 07:49:53 51°20.017 2°59.031 72.8 11.9 67.2 9.8
2002-05-17 07:49:58 51°20.024 2°59.055 73 11.9 67.5 9.7
2002-05-17 07:50:03 51°20.03 2°59.079 72.8 11.9 67.6 9.7
2002-05-17 07:50:08 51°20.036 2°59.104 73 11.9 67.7 9.8
2002-05-17 07:50:13 51°20.042 2°59.128 73.3 11.9 67.9 9.7
2002-05-17 07:50:18 51°20.049 2°59.152 72.8 11.9 67.5 9.7
2002-05-17 07:50:23 51°20.055 2°59.177 72.8 11.9 67.5 9.6
2002-05-17 07:50:28 51°20.061 2°59.201 72.7 11.9 67.3 9.7
2002-05-17 07:50:33 51°20.067 2°59.226 73.2 11.9 67.5 9.7
2002-05-17 07:50:37 51°20.072 2°59.245 73.2 11.9 67.7 9.7
2002-05-17 07:50:43 51°20.079 2°59.274 73.3 11.9 68.2 9.7
2002-05-17 07:50:48 51°20.086 2°59.299 73.2 11.9 68 9.7
2002-05-17 07:50:53 51°20.092 2°59.323 73.3 11.9 68 9.7
2002-05-17 07:50:57 51°20.097 2°59.343 73.2 11.9 68.1 9.5
2002-05-17 07:51:03 51°20.104 2°59.372 73.3 11.9 68.2 9.6
2002-05-17 07:51:08 51°20.11 2°59.396 73.7 11.9 68.4 9.6
2002-05-17 07:51:13 51°20.116 2°59.42 73.7 11.8 68.7 9.6
2002-05-17 07:51:17 51°20.121 2°59.44 73.7 11.9 68.8 9.6
2002-05-17 07:51:23 51°20.129 2°59.469 73.7 11.9 68.6 9.6
2002-05-17 07:51:28 51°20.135 2°59.494 73.5 11.9 68.4 9.5
2002-05-17 07:51:34 51°20.142 2°59.523 73.2 11.9 68 9.5
2002-05-17 07:51:44 51°20.154 2°59.571 73 11.9 67.6 9.6
2002-05-17 07:51:48 51°20.159 2°59.591 73.5 11.9 67.8 9.5
2002-05-17 07:51:54 51°20.166 2°59.62 73.3 11.9 68.2 9.5
2002-05-17 07:51:59 51°20.172 2°59.645 73.7 11.9 68.2 9.3
2002-05-17 07:52:04 51°20.178 2°59.669 73.8 11.9 68.5 9.5
2002-05-17 07:52:08 51°20.183 2°59.688 74 11.8 68.8 9.4
2002-05-17 07:52:14 51°20.19 2°59.718 73.5 11.8 68.7 9.5
2002-05-17 07:52:19 51°20.196 2°59.742 73.8 11.8 68.9 9.5
2002-05-17 07:52:24 51°20.202 2°59.766 73.7 11.9 68.3 9.4
2002-05-17 07:52:28 51°20.207 2°59.786 73.5 11.9 68.3 9.3
2002-05-17 07:52:34 51°20.214 2°59.815 73.7 11.9 68.4 9.5
2002-05-17 07:52:39 51°20.22 2°59.84 73.7 11.9 68.4 9.2
2002-05-17 07:52:44 51°20.226 2°59.864 73.7 11.9 68.4 9.3
2002-05-17 07:52:49 51°20.232 2°59.889 73.7 11.9 68.5 9.4
2002-05-17 07:52:54 51°20.239 2°59.913 73.2 11.9 68.2 9.4
2002-05-17 07:52:59 51°20.245 2°59.937 73.2 11.9 68 9.3
2002-05-17 07:53:04 51°20.251 2°59.962 73 11.9 67.8 9.4
2002-05-17 07:53:09 51°20.258 2°59.987 73 12 67.7 9.4
2002-05-17 07:53:14 51°20.264 3°0.011 73 12 67.7 9.3
2002-05-17 07:53:18 51°20.269 3°0.031 73 12 67.7 9.5
2002-05-17 07:53:24 51°20.276 3°0.06 73.3 11.9 68.1 9.4
2002-05-17 07:53:29 51°20.282 3°0.084 73.7 11.9 68.2 9.1
2002-05-17 07:53:34 51°20.288 3°0.109 73.5 11.9 68.3 9.4
2002-05-17 07:53:39 51°20.295 3°0.134 73.3 11.9 68.4 9.4
2002-05-17 07:53:43 51°20.3 3°0.153 73.7 11.9 68.4 9.5
2002-05-17 07:53:49 51°20.307 3°0.183 74 11.9 68.6 9.4
2002-05-17 07:53:54 51°20.313 3°0.207 73.3 12 68.1 9.3
2002-05-17 07:53:59 51°20.319 3°0.232 72.8 11.9 67.8 9.4
2002-05-17 07:54:04 51°20.325 3°0.256 73 11.9 67.7 9.2
2002-05-17 07:54:09 51°20.332 3°0.281 73 11.9 67.8 9.3
2002-05-17 07:54:14 51°20.338 3°0.305 73 11.9 67.8 9.4
2002-05-17 07:54:19 51°20.344 3°0.33 73.3 11.9 68.1 9.5
2002-05-17 07:54:24 51°20.351 3°0.354 73 11.9 68 9.3
2002-05-17 07:54:28 51°20.356 3°0.374 73.2 11.9 68 9.4
2002-05-17 07:54:33 51°20.362 3°0.398 73 11.9 68.2 9.4
2002-05-17 07:54:39 51°20.369 3°0.428 72.7 11.9 68 9.4
2002-05-17 07:54:44 51°20.376 3°0.452 72.7 11.9 67.5 9.4
2002-05-17 07:54:49 51°20.382 3°0.477 73 11.9 67.8 9.4
2002-05-17 07:54:54 51°20.388 3°0.501 72.7 11.9 67.7 9.4
2002-05-17 07:54:59 51°20.395 3°0.526 72.3 11.9 67.5 9.4
2002-05-17 07:55:04 51°20.401 3°0.55 72.3 11.9 67.3 9.4
2002-05-17 07:55:09 51°20.408 3°0.574 72.7 11.9 67.4 9.2
2002-05-17 07:55:14 51°20.414 3°0.599 72.5 11.9 67.5 9.1
2002-05-17 07:55:19 51°20.42 3°0.623 72.8 11.9 67.8 9.4
2002-05-17 07:55:24 51°20.426 3°0.648 73.3 11.9 68 9.3
2002-05-17 07:55:29 51°20.432 3°0.672 73.8 11.9 68.8 9.2
2002-05-17 07:55:34 51°20.438 3°0.697 73.8 11.9 68.9 9.1
2002-05-17 07:55:39 51°20.444 3°0.721 73.5 11.9 68.8 -999
2002-05-17 07:55:44 51°20.45 3°0.746 73.5 11.9 68.8 9.4
2002-05-17 07:55:49 51°20.456 3°0.77 73.3 11.9 68.4 9.4
2002-05-17 07:55:54 51°20.462 3°0.795 72.8 11.9 68.1 9.4
2002-05-17 07:55:59 51°20.468 3°0.819 72.7 11.9 68 9.3
2002-05-17 07:56:04 51°20.474 3°0.843 72.8 11.8 68 9.3
2002-05-17 07:56:09 51°20.48 3°0.868 73 11.9 68.2 9.2
2002-05-17 07:56:14 51°20.487 3°0.892 72.7 11.9 67.9 9.4
2002-05-17 07:56:19 51°20.493 3°0.917 72.5 11.9 67.8 9.3
2002-05-17 07:56:24 51°20.499 3°0.941 72.5 11.9 67.6 9.4
2002-05-17 07:56:29 51°20.505 3°0.965 72.8 11.9 67.8 9.2
2002-05-17 07:56:34 51°20.512 3°0.99 73 11.9 67.7 9.4
2002-05-17 07:56:39 51°20.518 3°1.014 73 11.9 67.9 9.2
2002-05-17 07:56:44 51°20.524 3°1.039 73 11.9 68.2 9.3
2002-05-17 07:56:48 51°20.529 3°1.058 73.2 11.9 68.1 9.5
2002-05-17 07:56:53 51°20.535 3°1.083 73.3 11.9 68.5 9.3
2002-05-17 07:56:59 51°20.542 3°1.112 73.7 12 68.4 9.3
2002-05-17 07:57:04 51°20.547 3°1.137 73.5 12 68.8 9.5
2002-05-17 07:57:09 51°20.554 3°1.161 73.2 11.9 68.3 9.4
2002-05-17 07:57:14 51°20.559 3°1.186 73.3 11.9 68.8 9.5
2002-05-17 07:57:19 51°20.566 3°1.21 73 11.9 68.5 9.2
2002-05-17 07:57:24 51°20.572 3°1.235 72.8 11.9 68.1 9.1
2002-05-17 07:57:29 51°20.578 3°1.259 72.7 11.9 68.2 9.2
2002-05-17 07:57:34 51°20.584 3°1.284 72.5 11.9 67.8 9.5
2002-05-17 07:57:39 51°20.591 3°1.308 72.3 11.9 67.7 9.5
2002-05-17 07:57:44 51°20.597 3°1.332 72.3 11.9 67.5 9.4
2002-05-17 07:57:49 51°20.603 3°1.356 72.3 11.9 67.5 9.1
2002-05-17 07:57:54 51°20.61 3°1.381 72.3 11.9 67.4 9.1
2002-05-17 07:57:59 51°20.616 3°1.405 72 11.9 67.1 9.3
2002-05-17 07:58:04 51°20.622 3°1.429 72.2 11.9 67.2 9.4
2002-05-17 07:58:09 51°20.629 3°1.454 72.5 11.9 67.4 9.3
2002-05-17 07:58:14 51°20.635 3°1.478 72.7 11.9 67.6 9.1
2002-05-17 07:58:19 51°20.641 3°1.503 73 11.9 68.1 9.4
2002-05-17 07:58:24 51°20.647 3°1.527 73.8 11.9 68.8 9.3
2002-05-17 07:58:29 51°20.652 3°1.552 74.3 11.9 69.5 9.2
2002-05-17 07:58:34 51°20.658 3°1.577 74 11.9 69.7 9.3
2002-05-17 07:58:39 51°20.664 3°1.601 74 11.9 69.4 9.4
2002-05-17 07:58:43 51°20.669 3°1.621 73.8 11.9 69.2 9.4
2002-05-17 07:58:48 51°20.674 3°1.646 74 11.9 69.3 9.4
2002-05-17 07:58:53 51°20.68 3°1.67 73.3 11.9 68.9 9.2
2002-05-17 07:58:59 51°20.687 3°1.7 73.5 11.9 69 9.5
2002-05-17 07:59:04 51°20.694 3°1.724 73.3 11.9 68.6 9.5
2002-05-17 07:59:08 51°20.698 3°1.744 73.3 11.9 68.6 9.4
2002-05-17 07:59:14 51°20.706 3°1.773 72.3 12 68 9.5
2002-05-17 07:59:19 51°20.712 3°1.798 72.2 12 67.6 9.4
2002-05-17 07:59:24 51°20.718 3°1.822 72.7 11.9 67.7 9.4
2002-05-17 07:59:29 51°20.724 3°1.846 72.8 11.9 68.1 9.4
2002-05-17 07:59:34 51°20.73 3°1.871 73.2 11.9 68.5 9.3
2002-05-17 07:59:39 51°20.736 3°1.895 73.3 11.9 68.7 9.4
2002-05-17 07:59:44 51°20.742 3°1.92 73 11.9 68.6 9.4
2002-05-17 07:59:49 51°20.749 3°1.944 72.7 11.9 68.2 9.3
2002-05-17 07:59:54 51°20.755 3°1.968 72.8 11.9 68.3 9.4
2002-05-17 07:59:59 51°20.761 3°1.993 73.2 11.9 68.7 9.5
2002-05-17 08:00:04 51°20.767 3°2.018 73.5 11.9 69 9.1
2002-05-17 08:00:08 51°20.772 3°2.037 73.7 11.9 69 9.2
2002-05-17 08:00:14 51°20.778 3°2.067 74 11.9 69.4 9.3
2002-05-17 08:00:19 51°20.784 3°2.091 73.7 11.9 69.1 9.3
2002-05-17 08:00:24 51°20.79 3°2.116 73.5 11.8 69.1 9.1
2002-05-17 08:00:28 51°20.795 3°2.135 73 11.8 68.6 9.5
2002-05-17 08:00:34 51°20.803 3°2.164 72.5 11.8 68 9.3
2002-05-17 08:00:39 51°20.809 3°2.188 71.5 11.9 67.1 9.5
2002-05-17 08:00:44 51°20.816 3°2.213 71 11.9 66.4 9.5
2002-05-17 08:00:49 51°20.822 3°2.237 71.2 11.8 66.5 9.1
2002-05-17 08:00:54 51°20.829 3°2.261 72 11.8 67.2 9.4
2002-05-17 08:00:59 51°20.835 3°2.285 72.7 11.8 67.8 9.3
2002-05-17 08:01:04 51°20.841 3°2.31 73.5 11.8 68.6 9.4
2002-05-17 08:01:09 51°20.846 3°2.334 73.8 11.9 69.2 9.3
2002-05-17 08:01:14 51°20.852 3°2.359 74.2 11.8 69.6 9.5
2002-05-17 08:01:19 51°20.858 3°2.384 73.8 11.9 69.5 9.4
2002-05-17 08:01:24 51°20.864 3°2.408 72.8 11.9 68.8 9.4
2002-05-17 08:01:29 51°20.871 3°2.432 72.3 11.9 67.8 9.4
2002-05-17 08:01:34 51°20.877 3°2.456 72.3 11.9 67.5 9.4
2002-05-17 08:01:39 51°20.883 3°2.481 72 11.9 67.3 9.3
2002-05-17 08:01:44 51°20.889 3°2.505 71.7 11.9 67.1 9.4
2002-05-17 08:01:49 51°20.896 3°2.529 72 11.9 67.2 9.5
2002-05-17 08:01:54 51°20.902 3°2.553 72.7 11.8 68 9.3
2002-05-17 08:01:59 51°20.908 3°2.578 73.3 11.8 68.6 9.4
2002-05-17 08:02:04 51°20.913 3°2.602 73.8 11.8 69.2 9.4
2002-05-17 08:02:08 51°20.918 3°2.622 74 11.8 69.7 9.4
2002-05-17 08:02:14 51°20.924 3°2.652 74.5 11.8 70.1 8.9
2002-05-17 08:02:19 51°20.93 3°2.676 74.7 11.8 70.1 9.3
2002-05-17 08:02:24 51°20.935 3°2.7 74.5 11.8 70.3 9.4
2002-05-17 08:02:28 51°20.94 3°2.72 74 11.8 69.9 9.5
2002-05-17 08:02:34 51°20.947 3°2.749 73.8 11.8 69.8 9.4
2002-05-17 08:02:39 51°20.952 3°2.774 73.8 11.8 69.6 9.3
2002-05-17 08:02:44 51°20.958 3°2.798 73.3 11.8 69.3 9.3
2002-05-17 08:02:48 51°20.963 3°2.817 72.8 11.8 68.6 9.3
2002-05-17 08:02:54 51°20.97 3°2.846 72.7 11.7 68.5 9.4
2002-05-17 08:02:59 51°20.977 3°2.87 72.7 11.8 68.2 9.3
2002-05-17 08:03:04 51°20.982 3°2.895 72.8 11.8 68.4 9.3
2002-05-17 08:03:09 51°20.989 3°2.919 72.5 11.8 68.2 9.3
2002-05-17 08:03:14 51°20.994 3°2.943 72.8 11.8 68.2 9.1
2002-05-17 08:03:19 51°21.001 3°2.967 72.8 11.8 68.4 9.1
2002-05-17 08:03:23 51°21.006 3°2.987 72.8 11.8 68.5 8.9
2002-05-17 08:03:29 51°21.013 3°3.016 72.8 11.8 68.4 9.3
2002-05-17 08:03:33 51°21.018 3°3.036 72.8 11.8 68.6 8.8
2002-05-17 08:03:39 51°21.025 3°3.065 73 11.8 68.7 9.3
2002-05-17 08:03:44 51°21.03 3°3.089 73.5 11.8 68.8 9.4
2002-05-17 08:03:49 51°21.036 3°3.114 73.7 11.8 69.1 9.4
2002-05-17 08:03:54 51°21.042 3°3.138 73.3 11.8 69.2 9.1
2002-05-17 08:03:59 51°21.048 3°3.162 73.2 11.8 68.8 9.3
2002-05-17 08:04:04 51°21.054 3°3.187 72.8 11.8 68.4 9.3
2002-05-17 08:04:08 51°21.059 3°3.206 72.8 11.8 68.2 9.1
2002-05-17 08:04:14 51°21.066 3°3.235 72.7 11.8 68.3 9.5
2002-05-17 08:04:19 51°21.073 3°3.26 72.5 11.8 68.1 9.5
2002-05-17 08:04:24 51°21.079 3°3.284 72.5 11.8 68.2 9.5
2002-05-17 08:04:29 51°21.085 3°3.308 72.7 11.8 68.2 9.3
2002-05-17 08:04:34 51°21.091 3°3.332 72.5 11.8 67.8 9.4
2002-05-17 08:04:39 51°21.098 3°3.356 71.7 11.8 67.1 9.2
2002-05-17 08:04:44 51°21.104 3°3.38 70.5 11.9 66.2 9.1
2002-05-17 08:04:49 51°21.111 3°3.404 70.3 11.8 65.7 9.4
2002-05-17 08:04:54 51°21.118 3°3.428 70.5 11.8 65.7 9.5
2002-05-17 08:04:59 51°21.125 3°3.452 70.3 11.8 65.4 9
2002-05-17 08:05:04 51°21.131 3°3.476 70.2 11.9 65.4 9.4
2002-05-17 08:05:09 51°21.138 3°3.5 69.7 11.9 65.1 9.4
2002-05-17 08:05:14 51°21.145 3°3.523 70 11.9 65.3 9.4
2002-05-17 08:05:19 51°21.152 3°3.547 70.2 11.9 65.8 9.4
2002-05-17 08:05:24 51°21.159 3°3.571 70.5 11.9 66.1 9.5
2002-05-17 08:05:29 51°21.165 3°3.595 70.5 11.9 66.1 9.6
2002-05-17 08:05:34 51°21.172 3°3.619 70.5 11.9 66.2 9.4
2002-05-17 08:05:39 51°21.179 3°3.643 70.7 11.9 66 9.3
2002-05-17 08:05:44 51°21.186 3°3.667 70.7 11.9 66 9.3
2002-05-17 08:05:48 51°21.191 3°3.686 70.7 11.9 66 9.5
2002-05-17 08:05:54 51°21.199 3°3.715 70.8 11.9 66 9.4
2002-05-17 08:05:59 51°21.205 3°3.739 70.5 11.9 65.9 9.2
2002-05-17 08:06:04 51°21.212 3°3.763 70.7 11.9 66 9.5
2002-05-17 08:06:09 51°21.218 3°3.787 71 11.9 66.3 9.3
2002-05-17 08:06:14 51°21.225 3°3.811 71.2 11.9 66.5 9.4
2002-05-17 08:06:19 51°21.232 3°3.836 70.7 11.9 66.3 9.5
2002-05-17 08:06:24 51°21.238 3°3.86 71 11.9 66.3 9.4
2002-05-17 08:06:29 51°21.245 3°3.884 71.2 11.8 66.5 9.2
2002-05-17 08:06:34 51°21.251 3°3.908 70.7 11.8 66.4 9.4
2002-05-17 08:06:38 51°21.257 3°3.927 70.5 11.8 66.1 9.5
2002-05-17 08:06:43 51°21.263 3°3.951 70.8 11.9 66.3 9.4
2002-05-17 08:06:48 51°21.27 3°3.975 71.3 11.9 66.6 9.5
2002-05-17 08:06:54 51°21.277 3°4.004 71.5 11.8 67 9.3
2002-05-17 08:06:59 51°21.284 3°4.028 71.2 11.8 67 9.2
2002-05-17 08:07:04 51°21.29 3°4.053 71.2 11.8 67 9.5
2002-05-17 08:07:09 51°21.296 3°4.077 71.5 11.8 67.1 9.3
2002-05-17 08:07:14 51°21.303 3°4.101 71.7 11.8 67.1 9.5
2002-05-17 08:07:19 51°21.309 3°4.125 71.3 11.9 67.1 9.6
2002-05-17 08:07:24 51°21.315 3°4.149 71.5 11.8 67.3 9.5
2002-05-17 08:07:29 51°21.322 3°4.173 71.3 11.8 67.2 9.4
2002-05-17 08:07:34 51°21.328 3°4.197 71.2 11.8 67.1 9.6
2002-05-17 08:07:39 51°21.335 3°4.221 71 11.8 66.9 9.6
2002-05-17 08:07:44 51°21.341 3°4.245 71 11.8 66.7 9.6
2002-05-17 08:07:49 51°21.348 3°4.269 71.2 11.8 66.5 9.6
2002-05-17 08:07:54 51°21.354 3°4.293 70.8 11.8 66.3 9.6
2002-05-17 08:07:59 51°21.361 3°4.317 71 11.8 66.6 9.5
2002-05-17 08:08:03 51°21.366 3°4.336 70.7 11.8 66.5 9.5
2002-05-17 08:08:09 51°21.374 3°4.365 71 11.8 66.8 9.6
2002-05-17 08:08:14 51°21.38 3°4.389 71.3 11.8 66.9 9.7
2002-05-17 08:08:18 51°21.385 3°4.408 71.3 11.9 66.9 9.7
2002-05-17 08:08:23 51°21.392 3°4.432 70.7 11.9 66.6 9.6
2002-05-17 08:08:28 51°21.398 3°4.456 70.7 11.8 66.3 9.7
2002-05-17 08:08:34 51°21.406 3°4.485 70.8 11.8 66.3 9.7
2002-05-17 08:08:39 51°21.413 3°4.509 71.2 11.8 66.8 9.9
2002-05-17 08:08:43 51°21.418 3°4.528 71.2 11.8 66.7 9.9
2002-05-17 08:08:49 51°21.425 3°4.557 71.2 11.9 66.9 10
2002-05-17 08:08:54 51°21.432 3°4.581 71.3 11.8 67 9.8
2002-05-17 08:08:58 51°21.437 3°4.6 71.7 11.8 67.2 10
2002-05-17 08:09:04 51°21.444 3°4.629 72.2 11.8 67.5 9.9
2002-05-17 08:09:08 51°21.45 3°4.649 71.7 11.8 67.4 10.1
2002-05-17 08:09:14 51°21.457 3°4.678 71.2 11.9 67.1 9.9
2002-05-17 08:09:19 51°21.464 3°4.701 70.5 11.8 66.3 10
2002-05-17 08:09:24 51°21.471 3°4.725 70.2 11.8 65.8 10.1
2002-05-17 08:09:29 51°21.478 3°4.749 70.3 11.8 65.5 10
2002-05-17 08:09:34 51°21.485 3°4.773 70.2 11.9 65.2 10.1
2002-05-17 08:09:39 51°21.492 3°4.797 69.7 11.9 64.9 10.1
2002-05-17 08:09:44 51°21.499 3°4.82 69.5 11.8 64.9 9.9
2002-05-17 08:09:49 51°21.506 3°4.844 69.8 11.8 64.9 9.9
2002-05-17 08:09:53 51°21.511 3°4.863 70.5 11.8 65.4 10.1
2002-05-17 08:09:59 51°21.519 3°4.892 71.3 11.8 66.4 10.1
2002-05-17 08:10:04 51°21.525 3°4.916 71.7 11.8 66.9 10.1
2002-05-17 08:10:08 51°21.53 3°4.935 71.3 11.8 66.5 10.1
2002-05-17 08:10:14 51°21.537 3°4.963 71 11.8 66.4 9.8
2002-05-17 08:10:19 51°21.544 3°4.987 70.5 11.7 65.9 10
2002-05-17 08:10:23 51°21.549 3°5.006 70.7 11.7 66.1 10.1
2002-05-17 08:10:28 51°21.556 3°5.029 70.7 11.7 66.2 10.1
2002-05-17 08:10:34 51°21.564 3°5.058 71 11.8 66.3 10.3
2002-05-17 08:10:39 51°21.57 3°5.082 70.8 11.8 66.2 10.2
2002-05-17 08:10:44 51°21.577 3°5.106 70.7 11.8 66.1 10.1
2002-05-17 08:10:49 51°21.583 3°5.13 70.8 11.8 66.1 10.1
2002-05-17 08:10:54 51°21.59 3°5.153 71 11.7 66.2 10.2
2002-05-17 08:10:59 51°21.596 3°5.177 71.2 11.7 66.5 10.2
2002-05-17 08:11:04 51°21.602 3°5.201 71.2 11.8 66.4 10
2002-05-17 08:11:09 51°21.609 3°5.225 71 11.8 66.5 10.1
2002-05-17 08:11:14 51°21.615 3°5.249 71.2 11.8 66.5 10.1
2002-05-17 08:11:18 51°21.621 3°5.268 71 11.7 66.2 10
2002-05-17 08:11:24 51°21.629 3°5.296 71 11.7 66.3 10.1
2002-05-17 08:11:29 51°21.635 3°5.32 71.3 11.7 66.8 10.1
2002-05-17 08:11:34 51°21.642 3°5.344 71.7 11.7 67.1 10
2002-05-17 08:11:39 51°21.648 3°5.368 71.5 11.8 66.9 10.1
2002-05-17 08:11:44 51°21.655 3°5.391 71.3 11.8 66.5 10.1
2002-05-17 08:11:49 51°21.661 3°5.415 71.3 11.8 66.3 10.2
2002-05-17 08:11:54 51°21.668 3°5.439 71.2 11.8 66.1 10
2002-05-17 08:11:59 51°21.675 3°5.463 70.8 11.8 65.9 10
2002-05-17 08:12:04 51°21.681 3°5.487 70.8 11.8 65.7 10
2002-05-17 08:12:09 51°21.688 3°5.51 70.5 11.8 65.5 10.2
2002-05-17 08:12:14 51°21.695 3°5.534 70.3 11.8 65.5 10.2
2002-05-17 08:12:19 51°21.702 3°5.558 70.7 11.8 65.4 10.2
2002-05-17 08:12:24 51°21.709 3°5.582 70.7 11.8 65.5 10.2
2002-05-17 08:12:28 51°21.714 3°5.601 71 11.8 65.7 10.3
2002-05-17 08:12:34 51°21.72 3°5.629 70.8 11.7 65.8 10.2
2002-05-17 08:12:39 51°21.727 3°5.653 70.3 11.7 65.7 10.1
2002-05-17 08:12:44 51°21.734 3°5.677 70.7 11.7 65.7 10.2
2002-05-17 08:12:49 51°21.741 3°5.701 71 11.6 65.9 10
2002-05-17 08:12:54 51°21.748 3°5.725 71 11.7 66 10.2
2002-05-17 08:12:59 51°21.756 3°5.75 70.8 11.7 66 10.2
2002-05-17 08:13:04 51°21.763 3°5.774 70.7 11.7 65.7 10.2
2002-05-17 08:13:09 51°21.77 3°5.798 71 11.6 65.7 10.4
2002-05-17 08:13:13 51°21.775 3°5.817 70.7 11.6 65.8 10.3
2002-05-17 08:13:19 51°21.783 3°5.845 70.5 11.7 65.3 10.1
2002-05-17 08:13:24 51°21.789 3°5.868 70.7 11.6 65.4 10.3
2002-05-17 08:13:29 51°21.796 3°5.891 70.7 11.6 65.5 10.5
2002-05-17 08:13:34 51°21.802 3°5.914 70.8 11.6 65.4 10.3
2002-05-17 08:13:39 51°21.808 3°5.937 70.8 11.6 65.8 10.4
2002-05-17 08:13:44 51°21.814 3°5.96 70.7 11.6 65.4 10.5
2002-05-17 08:13:49 51°21.82 3°5.983 71.2 11.7 65.6 10.3
2002-05-17 08:13:54 51°21.827 3°6.006 70.7 11.7 65.3 10.5
2002-05-17 08:13:58 51°21.832 3°6.025 71 11.6 65.7 10.4
2002-05-17 08:14:04 51°21.839 3°6.053 71.3 11.6 65.9 10.3
2002-05-17 08:14:08 51°21.844 3°6.072 71.7 11.6 66.4 10.4
2002-05-17 08:14:14 51°21.852 3°6.1 71.7 11.6 66.7 10.6
2002-05-17 08:14:19 51°21.858 3°6.123 71.8 11.6 66.6 10.6
2002-05-17 08:14:24 51°21.865 3°6.147 71.7 11.6 66.4 10.4
2002-05-17 08:14:28 51°21.87 3°6.166 71.3 11.7 66.1 10.5
2002-05-17 08:14:34 51°21.878 3°6.193 71 11.6 65.8 10.7
2002-05-17 08:14:39 51°21.885 3°6.217 71.2 11.6 65.6 10.6
2002-05-17 08:14:44 51°21.891 3°6.24 70.7 11.6 65.3 10.7
2002-05-17 08:14:49 51°21.898 3°6.263 70.7 11.6 65.2 10.8
2002-05-17 08:14:54 51°21.904 3°6.287 70.8 11.7 65.3 10.8
2002-05-17 08:14:59 51°21.911 3°6.31 71.2 11.7 65.6 10.8
2002-05-17 08:15:04 51°21.917 3°6.334 71.5 11.6 66 10.6
2002-05-17 08:15:08 51°21.922 3°6.353 71.3 11.6 66 10.7
2002-05-17 08:15:14 51°21.93 3°6.381 70.8 11.6 65.5 10.9
2002-05-17 08:15:19 51°21.936 3°6.405 71 11.7 65.6 10.9
2002-05-17 08:15:24 51°21.943 3°6.428 70.8 11.7 65.5 10.9
2002-05-17 08:15:28 51°21.949 3°6.447 71.2 11.7 65.6 10.9
2002-05-17 08:15:34 51°21.957 3°6.474 71.2 11.7 65.6 10.9
2002-05-17 08:15:39 51°21.963 3°6.498 71 11.7 65.7 10.8
2002-05-17 08:15:42 51°21.967 3°6.512 70.8 11.7 65.8 11
2002-05-17 08:15:49 51°21.977 3°6.545 71 11.7 65.6 10.9
2002-05-17 08:15:54 51°21.983 3°6.569 71.5 11.7 65.8 11
2002-05-17 08:15:59 51°21.99 3°6.593 71.2 11.8 65.6 11
2002-05-17 08:16:03 51°21.995 3°6.612 71.2 11.8 65.8 11
2002-05-17 08:16:09 51°22.003 3°6.64 71 11.8 65.6 11
2002-05-17 08:16:14 51°22.01 3°6.663 70.8 11.7 65.8 10.8
2002-05-17 08:16:19 51°22.017 3°6.687 70.8 11.7 65.3 10.9
2002-05-17 08:16:24 51°22.023 3°6.711 71.5 11.7 65.7 10.9
2002-05-17 08:16:29 51°22.03 3°6.735 71.3 11.8 65.7 10.9
2002-05-17 08:16:34 51°22.037 3°6.759 71.2 11.8 65.9 11
2002-05-17 08:16:39 51°22.044 3°6.782 71 11.7 65.7 11
2002-05-17 08:16:44 51°22.05 3°6.806 71.2 11.7 65.9 11.1
2002-05-17 08:16:49 51°22.057 3°6.83 71.3 11.8 65.9 11
2002-05-17 08:16:54 51°22.063 3°6.854 71.2 11.8 66.1 11.1
2002-05-17 08:16:59 51°22.07 3°6.878 71 11.8 65.9 11
2002-05-17 08:17:04 51°22.077 3°6.901 71.3 11.8 66 11.2
2002-05-17 08:17:08 51°22.082 3°6.92 71 11.8 66.1 11.1
2002-05-17 08:17:14 51°22.09 3°6.949 71 11.8 66.3 10.8
2002-05-17 08:17:19 51°22.097 3°6.973 71.2 11.8 66.5 11.1
2002-05-17 08:17:24 51°22.103 3°6.998 72.5 11.8 67.6 11.2
2002-05-17 08:17:28 51°22.108 3°7.017 73.2 11.8 68.4 11.2
2002-05-17 08:17:34 51°22.115 3°7.047 73.5 11.8 69.1 11.2
2002-05-17 08:17:39 51°22.12 3°7.071 74.3 11.8 69.7 11.1
2002-05-17 08:17:44 51°22.125 3°7.095 74.7 11.8 70.5 11.2
2002-05-17 08:17:48 51°22.129 3°7.115 74.7 11.8 71.1 11.2
2002-05-17 08:17:54 51°22.136 3°7.145 74.7 11.8 71 11.1
2002-05-17 08:17:59 51°22.141 3°7.169 74.3 11.8 70.7 11.3
2002-05-17 08:18:04 51°22.146 3°7.194 74.3 11.8 70.8 11.4
2002-05-17 08:18:08 51°22.151 3°7.214 74.2 11.8 70.6 11.3
2002-05-17 08:18:14 51°22.157 3°7.243 74.8 11.8 71.3 11.2
2002-05-17 08:18:19 51°22.163 3°7.268 74.3 11.8 71 11.4
2002-05-17 08:18:24 51°22.168 3°7.293 74.3 11.8 71.1 11.3
2002-05-17 08:18:29 51°22.173 3°7.317 73.5 11.8 70.2 11.3
2002-05-17 08:18:34 51°22.179 3°7.342 73.7 11.8 70.3 11.3
2002-05-17 08:18:39 51°22.184 3°7.366 73.8 11.8 70.3 11.2
2002-05-17 08:18:44 51°22.189 3°7.39 74.7 11.7 71.4 11.2
2002-05-17 08:18:49 51°22.194 3°7.415 73.8 11.7 71.1 11.4
2002-05-17 08:18:54 51°22.2 3°7.44 74 11.8 71.6 11.3
2002-05-17 08:18:59 51°22.205 3°7.465 74.5 11.7 71.9 11.1
2002-05-17 08:19:04 51°22.21 3°7.489 74.3 11.7 72.5 11.3
2002-05-17 08:19:09 51°22.215 3°7.514 74.7 11.7 72.3 11.3
2002-05-17 08:19:14 51°22.22 3°7.539 74.5 11.7 72.2 11.3
2002-05-17 08:19:19 51°22.225 3°7.563 74.2 11.7 71.6 11.3
2002-05-17 08:19:24 51°22.231 3°7.587 73.5 11.7 71.1 11.3
2002-05-17 08:19:29 51°22.236 3°7.612 73 11.7 70.4 11.3
2002-05-17 08:19:34 51°22.242 3°7.636 73.2 11.7 70.3 11.4
2002-05-17 08:19:39 51°22.247 3°7.66 73.3 11.6 70.5 11.3
2002-05-17 08:19:44 51°22.252 3°7.685 74 11.6 70.7 11.2
2002-05-17 08:19:49 51°22.257 3°7.709 74.2 11.6 71.2 11.3
2002-05-17 08:19:54 51°22.262 3°7.734 74.7 11.6 71.8 11.4
2002-05-17 08:19:59 51°22.267 3°7.758 74.5 11.6 72 11.4
2002-05-17 08:20:04 51°22.272 3°7.782 74.7 11.5 72.2 11.3
2002-05-17 08:20:09 51°22.277 3°7.806 74.2 11.5 71.9 11.4
2002-05-17 08:20:14 51°22.282 3°7.831 74.2 11.5 71.6 11.4
2002-05-17 08:20:19 51°22.287 3°7.854 73.8 11.5 71.5 11.4
2002-05-17 08:20:24 51°22.293 3°7.879 74 11.5 71.6 11.3
2002-05-17 08:20:29 51°22.299 3°7.903 74.3 11.5 71.6 11.5
2002-05-17 08:20:34 51°22.304 3°7.928 74 11.5 71.6 11.3
2002-05-17 08:20:39 51°22.31 3°7.952 73.8 11.5 71.5 11.5
2002-05-17 08:20:44 51°22.314 3°7.976 73.7 11.5 71.1 11.5
2002-05-17 08:20:48 51°22.318 3°7.995 73.7 11.5 71.4 11.4
2002-05-17 08:20:54 51°22.325 3°8.024 73.5 11.5 71.2 11.4
2002-05-17 08:20:59 51°22.33 3°8.048 74 11.5 71.6 11.4
2002-05-17 08:21:04 51°22.335 3°8.072 74.5 11.5 71.6 11.3
2002-05-17 08:21:08 51°22.338 3°8.091 74.7 11.5 72.4 11.3
2002-05-17 08:21:13 51°22.343 3°8.116 74.3 11.5 72.1 11.5
2002-05-17 08:21:19 51°22.349 3°8.145 74.5 11.5 72.2 11.5
2002-05-17 08:21:24 51°22.354 3°8.169 74 11.5 71.8 11.6
2002-05-17 08:21:28 51°22.358 3°8.188 73.7 11.5 71.5 11.6
2002-05-17 08:21:34 51°22.365 3°8.217 73.5 11.5 71.2 11.4
2002-05-17 08:21:39 51°22.37 3°8.242 73.3 11.5 71.1 11.7
2002-05-17 08:21:44 51°22.376 3°8.265 73.3 11.5 70.9 11.7
2002-05-17 08:21:49 51°22.381 3°8.289 73.5 11.4 71.1 11.7
2002-05-17 08:21:54 51°22.386 3°8.313 73.5 11.4 71 11.7
2002-05-17 08:21:59 51°22.392 3°8.337 73.5 11.5 70.9 11.6
2002-05-17 08:22:04 51°22.397 3°8.361 73.8 11.5 71 11.6
2002-05-17 08:22:09 51°22.402 3°8.385 74.3 11.4 71.4 11.6
2002-05-17 08:22:14 51°22.407 3°8.409 74.5 11.4 71.7 11.8
2002-05-17 08:22:18 51°22.411 3°8.428 74.5 11.4 71.7 11.8
2002-05-17 08:22:24 51°22.417 3°8.457 74.2 11.4 71.6 11.1
2002-05-17 08:22:29 51°22.422 3°8.481 73.7 11.4 71.2 11.6
2002-05-17 08:22:34 51°22.427 3°8.504 74.2 11.4 71.2 11.5
2002-05-17 08:22:38 51°22.431 3°8.524 74.3 11.4 71.1 11.9
2002-05-17 08:22:44 51°22.437 3°8.552 74.2 11.4 71.1 11.9
2002-05-17 08:22:49 51°22.442 3°8.576 74 11.4 71.2 12
2002-05-17 08:22:54 51°22.448 3°8.6 73.5 11.4 70.8 11.9
2002-05-17 08:22:59 51°22.453 3°8.624 73.5 11.4 70.7 11.9
2002-05-17 08:23:04 51°22.458 3°8.648 73.3 11.4 70.4 11.8
2002-05-17 08:23:08 51°22.462 3°8.667 73.3 11.4 70.1 11.9
2002-05-17 08:23:14 51°22.469 3°8.695 73.3 11.4 69.7 12
2002-05-17 08:23:19 51°22.475 3°8.718 73 11.4 69.4 11.9
2002-05-17 08:23:24 51°22.48 3°8.742 73.2 11.4 69.6 11.9